Terminal Aerodrome Forecast
Issued by NWS Dodge City, KS

Home | Current Version | Previous Version | Text Only | Print | Product List | Glossary On
Versions: 1 2 3 4 5 6 7 8 9 10 11 12 13 14 15 16 17 18 19 20 21 22 23 24 25 26 27 28 29 30 31 32 33 34 35 36 37 38 39 40 41 42 43 44 45 46 47 48 49 50
000
FTUS43 KDDC 220537
TAFDDC
TAF
KDDC 220537Z 2206/2306 32025G35KT P6SM OVC010
     FM220800 33035G45KT 3SM -SN OVC015
      TEMPO 2208/2212 1SM -SN BLSN
     FM221600 33030G40KT P6SM SCT040=

USA.gov is the U.S. government's official web portal to all federal, state and local government web resources and services.